createdAt,value
2023-03-22T00:00:56.387Z,88.60
2023-03-22T00:03:27.704Z,88.89
2023-03-22T00:05:58.976Z,89.01
2023-03-22T00:08:29.686Z,89.00
2023-03-22T00:11:00.248Z,88.99
2023-03-22T00:13:35.626Z,88.92
2023-03-22T00:16:07.334Z,88.67
2023-03-22T00:18:39.864Z,88.66
2023-03-22T00:21:13.475Z,88.66
2023-03-22T00:23:45.951Z,88.94
2023-03-22T00:26:16.571Z,88.86
2023-03-22T00:28:47.065Z,89.19
2023-03-22T00:31:17.719Z,89.15
2023-03-22T00:33:48.761Z,89.26
2023-03-22T00:36:20.963Z,89.31
2023-03-22T00:38:52.585Z,89.40
2023-03-22T00:41:25.525Z,89.49
2023-03-22T00:43:56.103Z,89.60
2023-03-22T00:46:27.963Z,89.50
2023-03-22T00:48:58.803Z,89.55
2023-03-22T00:51:31.012Z,89.61
2023-03-22T00:54:01.668Z,89.49
2023-03-22T00:56:37.938Z,89.57
2023-03-22T00:59:06.719Z,89.55
2023-03-22T01:01:37.430Z,89.52
2023-03-22T01:04:08.284Z,89.47
2023-03-22T01:06:38.996Z,89.49
2023-03-22T01:09:12.710Z,89.45
2023-03-22T01:11:44.316Z,89.41
2023-03-22T01:14:19.357Z,89.32
2023-03-22T01:16:50.136Z,89.23
2023-03-22T01:19:20.872Z,89.26
2023-03-22T01:21:52.551Z,89.12
2023-03-22T01:24:23.265Z,89.30
2023-03-22T01:26:53.835Z,89.40
2023-03-22T01:29:26.105Z,89.46
2023-03-22T01:31:56.620Z,89.20
2023-03-22T01:34:27.166Z,89.21
2023-03-22T01:36:59.270Z,89.30
2023-03-22T01:39:32.036Z,89.33
2023-03-22T01:42:05.573Z,89.39
2023-03-22T01:44:37.541Z,89.37
2023-03-22T01:47:11.478Z,89.46
2023-03-22T01:49:43.457Z,89.32
2023-03-22T01:52:15.781Z,89.31
2023-03-22T01:54:49.486Z,89.45
2023-03-22T01:57:20.136Z,89.25
2023-03-22T01:59:51.313Z,89.16
2023-03-22T02:02:22.201Z,89.15
2023-03-22T02:04:54.550Z,89.24
2023-03-22T02:07:28.308Z,89.11
2023-03-22T02:09:59.877Z,89.20
2023-03-22T02:12:53.162Z,89.18
2023-03-22T02:15:32.329Z,89.14
2023-03-22T02:18:10.629Z,89.09
2023-03-22T02:21:00.182Z,89.13
2023-03-22T02:23:43.224Z,89.08
2023-03-22T02:26:28.777Z,89.05
2023-03-22T02:29:22.587Z,89.35
2023-03-22T02:32:25.179Z,89.42
2023-03-22T02:35:16.704Z,89.51
2023-03-22T02:38:13.318Z,89.47
2023-03-22T02:41:06.366Z,89.31
2023-03-22T02:43:48.413Z,89.39
2023-03-22T02:46:25.163Z,89.23
2023-03-22T02:48:58.829Z,89.14
2023-03-22T02:51:55.283Z,89.19
2023-03-22T02:54:28.864Z,89.10
2023-03-22T02:57:02.472Z,89.05
2023-03-22T02:59:36.867Z,88.99
2023-03-22T03:02:10.726Z,88.95
2023-03-22T03:04:45.502Z,88.74
2023-03-22T03:07:20.290Z,88.72
2023-03-22T03:09:53.237Z,88.79
2023-03-22T03:12:26.641Z,88.79
2023-03-22T03:14:57.829Z,88.59
2023-03-22T03:17:37.361Z,88.80
2023-03-22T03:20:12.234Z,88.82
2023-03-22T03:22:57.920Z,88.72
2023-03-22T03:25:48.334Z,88.95
2023-03-22T03:28:32.481Z,88.91
2023-03-22T03:31:31.902Z,88.83
2023-03-22T03:34:05.562Z,88.55
2023-03-22T03:36:38.386Z,88.67
2023-03-22T03:39:12.405Z,88.67
2023-03-22T03:41:47.322Z,88.52
2023-03-22T03:44:19.312Z,88.05
2023-03-22T03:46:51.724Z,88.28
2023-03-22T03:49:24.104Z,88.16
2023-03-22T03:51:56.300Z,88.18
2023-03-22T03:54:26.945Z,88.20
2023-03-22T03:56:57.834Z,88.13
2023-03-22T03:59:29.858Z,88.25
2023-03-22T04:02:00.483Z,88.29
2023-03-22T04:04:31.247Z,88.22
2023-03-22T04:07:04.652Z,88.15
2023-03-22T04:09:38.004Z,87.98
2023-03-22T04:12:09.755Z,87.72
2023-03-22T04:14:44.275Z,87.61
2023-03-22T04:17:18.296Z,87.77
2023-03-22T04:19:49.594Z,87.56
2023-03-22T04:22:20.072Z,86.62
2023-03-22T04:24:51.128Z,86.68
2023-03-22T04:27:22.799Z,86.72
2023-03-22T04:29:54.596Z,87.03
2023-03-22T04:32:25.310Z,87.17
2023-03-22T04:34:56.222Z,87.23
2023-03-22T04:37:27.170Z,87.11
2023-03-22T04:39:58.948Z,86.59
2023-03-22T04:42:30.557Z,86.82
2023-03-22T04:45:03.581Z,86.73
2023-03-22T04:47:34.212Z,86.71
2023-03-22T04:50:07.490Z,86.98
2023-03-22T04:52:38.198Z,86.54
2023-03-22T04:55:09.764Z,86.50
2023-03-22T04:57:40.465Z,86.78
2023-03-22T05:00:11.986Z,86.45
2023-03-22T05:02:42.638Z,86.41
2023-03-22T05:05:13.355Z,86.44
2023-03-22T05:07:47.061Z,86.21
2023-03-22T05:10:17.657Z,86.58
2023-03-22T05:12:49.907Z,86.35
2023-03-22T05:15:20.365Z,86.13
2023-03-22T05:17:51.002Z,86.17
2023-03-22T05:20:22.908Z,86.20
2023-03-22T05:22:56.166Z,86.16
2023-03-22T05:25:26.783Z,86.25
2023-03-22T05:27:58.984Z,86.21
2023-03-22T05:30:30.753Z,86.07
2023-03-22T05:33:03.121Z,86.15
2023-03-22T05:35:35.575Z,85.73
2023-03-22T05:38:06.788Z,86.05
2023-03-22T05:40:39.468Z,85.91
2023-03-22T05:43:10.596Z,85.77
2023-03-22T05:45:42.456Z,85.94
2023-03-22T05:48:13.403Z,85.69
2023-03-22T05:50:44.261Z,85.55
2023-03-22T05:53:14.852Z,85.40
2023-03-22T05:55:46.202Z,85.12
2023-03-22T05:58:18.445Z,85.21
2023-03-22T06:00:52.179Z,84.69
2023-03-22T06:03:24.568Z,84.88
2023-03-22T06:05:55.703Z,84.86
2023-03-22T06:08:26.876Z,84.68
2023-03-22T06:10:58.168Z,84.70
2023-03-22T06:13:30.713Z,84.82
2023-03-22T06:16:03.025Z,84.95
2023-03-22T06:18:34.227Z,84.67
2023-03-22T06:21:08.354Z,84.32
2023-03-22T06:23:44.386Z,83.89
2023-03-22T06:26:14.871Z,83.90
2023-03-22T06:28:47.664Z,83.45
2023-03-22T06:31:18.155Z,83.46
2023-03-22T06:33:48.770Z,83.49
2023-03-22T06:36:19.455Z,83.04
2023-03-22T06:38:50.601Z,82.81
2023-03-22T06:41:22.018Z,82.27
2023-03-22T06:43:53.069Z,82.04
2023-03-22T06:46:23.767Z,81.96
2023-03-22T06:48:54.326Z,82.39
2023-03-22T06:51:26.196Z,81.81
2023-03-22T06:53:56.602Z,81.46
2023-03-22T06:56:29.266Z,81.67
2023-03-22T06:59:00.259Z,81.31
2023-03-22T07:01:31.025Z,81.90
2023-03-22T07:04:01.689Z,81.28
2023-03-22T07:06:32.756Z,80.61
2023-03-22T07:09:03.482Z,81.26
2023-03-22T07:11:35.630Z,80.98
2023-03-22T07:14:07.718Z,80.50
2023-03-22T07:16:40.122Z,80.73
2023-03-22T07:19:12.026Z,80.97
2023-03-22T07:21:44.810Z,79.64
2023-03-22T07:24:15.824Z,79.37
2023-03-22T07:26:46.565Z,78.99
2023-03-22T07:29:17.187Z,79.53
2023-03-22T07:31:47.768Z,78.37
2023-03-22T07:34:18.144Z,78.01
2023-03-22T07:36:52.162Z,77.65
2023-03-22T07:39:24.218Z,78.42
2023-03-22T07:41:54.715Z,77.72
2023-03-22T07:44:25.941Z,77.09
2023-03-22T07:46:59.163Z,77.21
2023-03-22T07:49:30.275Z,76.95
2023-03-22T07:52:01.126Z,76.96
2023-03-22T07:54:34.242Z,75.26
2023-03-22T07:57:03.886Z,74.81
2023-03-22T07:59:34.413Z,74.05
2023-03-22T08:02:05.074Z,72.93
2023-03-22T08:04:35.619Z,73.07
2023-03-22T08:07:07.823Z,72.30
2023-03-22T08:09:39.442Z,72.61
2023-03-22T08:12:09.916Z,72.10
2023-03-22T08:14:40.379Z,70.96
2023-03-22T08:17:11.309Z,70.44
2023-03-22T08:19:41.818Z,70.51
2023-03-22T08:22:12.325Z,70.79
2023-03-22T08:24:42.796Z,70.62
2023-03-22T08:27:14.202Z,71.54
2023-03-22T08:29:44.621Z,70.16
2023-03-22T08:32:16.326Z,70.63
2023-03-22T08:34:49.340Z,70.95
2023-03-22T08:37:20.409Z,71.59
2023-03-22T08:39:51.996Z,71.37
2023-03-22T08:42:24.093Z,70.25
2023-03-22T08:44:54.653Z,70.89
2023-03-22T08:47:27.546Z,70.12
2023-03-22T08:49:58.146Z,69.84
2023-03-22T08:52:30.194Z,69.89
2023-03-22T08:55:01.137Z,70.93
2023-03-22T08:57:31.882Z,70.77
2023-03-22T09:00:06.491Z,70.19
2023-03-22T09:02:37.368Z,69.42
2023-03-22T09:05:08.091Z,69.47
2023-03-22T09:07:39.199Z,68.34
2023-03-22T09:10:10.686Z,67.15
2023-03-22T09:12:41.162Z,66.66
2023-03-22T09:15:12.170Z,66.76
2023-03-22T09:17:42.621Z,67.45
2023-03-22T09:20:17.959Z,66.64
2023-03-22T09:22:48.736Z,67.58
2023-03-22T09:25:19.537Z,65.84
2023-03-22T09:27:51.527Z,65.32
2023-03-22T09:30:21.968Z,64.26
2023-03-22T09:32:52.502Z,63.84
2023-03-22T09:35:23.548Z,63.10
2023-03-22T09:37:54.676Z,63.49
2023-03-22T09:40:28.694Z,63.54
2023-03-22T09:43:02.086Z,63.63
2023-03-22T09:45:37.003Z,64.05
2023-03-22T09:48:13.739Z,64.45
2023-03-22T09:50:49.816Z,64.18
2023-03-22T09:53:23.706Z,64.20
2023-03-22T09:56:12.378Z,63.12
2023-03-22T09:58:51.484Z,62.99
2023-03-22T10:01:51.811Z,62.23
2023-03-22T10:04:36.794Z,60.75
2023-03-22T10:07:13.771Z,60.38
2023-03-22T10:10:11.287Z,59.24
2023-03-22T10:12:47.576Z,60.64
2023-03-22T10:15:21.058Z,62.62
2023-03-22T10:17:54.413Z,64.01
2023-03-22T10:20:28.494Z,62.64
2023-03-22T10:23:04.347Z,61.65
2023-03-22T10:25:39.014Z,61.46
2023-03-22T10:28:18.840Z,61.29
2023-03-22T10:30:54.759Z,61.52
2023-03-22T10:33:40.435Z,59.14
2023-03-22T10:36:16.589Z,58.66
2023-03-22T10:38:54.268Z,57.50
2023-03-22T10:41:26.525Z,58.88
2023-03-22T10:44:02.980Z,58.45
2023-03-22T10:46:37.579Z,57.09
2023-03-22T10:49:11.004Z,56.79
2023-03-22T10:51:54.696Z,58.36
2023-03-22T10:54:27.127Z,59.90
2023-03-22T10:56:57.625Z,60.42
2023-03-22T10:59:51.962Z,59.91
2023-03-22T11:02:28.104Z,57.57
2023-03-22T11:05:01.341Z,57.56
2023-03-22T11:07:35.164Z,57.02
2023-03-22T11:10:11.813Z,55.79
2023-03-22T11:12:54.250Z,55.91
2023-03-22T11:15:33.888Z,55.79
2023-03-22T11:18:07.440Z,56.39
2023-03-22T11:20:43.773Z,56.15
2023-03-22T11:23:18.015Z,56.14
2023-03-22T11:25:51.539Z,56.86
2023-03-22T11:28:24.654Z,55.75
2023-03-22T11:31:11.467Z,55.39
2023-03-22T11:33:58.832Z,58.12
2023-03-22T11:36:30.268Z,55.20
2023-03-22T11:39:04.100Z,54.16
2023-03-22T11:41:40.815Z,53.35
2023-03-22T11:44:15.428Z,53.41
2023-03-22T11:47:03.342Z,53.31
2023-03-22T11:49:36.858Z,53.30
2023-03-22T11:52:11.820Z,52.78
2023-03-22T11:54:45.832Z,54.65
2023-03-22T11:57:19.508Z,53.52
2023-03-22T11:59:56.753Z,53.00
2023-03-22T12:02:34.216Z,52.14
2023-03-22T12:05:10.664Z,51.98
2023-03-22T12:07:43.766Z,52.30
2023-03-22T12:10:26.997Z,51.32
2023-03-22T12:13:07.896Z,51.16
2023-03-22T12:15:42.160Z,51.64
2023-03-22T12:18:23.197Z,52.60
2023-03-22T12:20:59.128Z,53.14
2023-03-22T12:23:34.581Z,54.12
2023-03-22T12:26:18.327Z,52.81
2023-03-22T12:29:01.825Z,53.67
2023-03-22T12:31:38.530Z,52.44
2023-03-22T12:37:09.212Z,52.07
2023-03-22T12:39:43.780Z,50.59
2023-03-22T12:42:21.983Z,51.26
2023-03-22T12:45:04.617Z,51.15
2023-03-22T12:47:31.172Z,50.09
2023-03-22T12:50:05.555Z,52.03
2023-03-22T12:52:45.606Z,51.37
2023-03-22T12:55:25.374Z,51.58
2023-03-22T12:57:59.899Z,50.62
2023-03-22T13:00:48.592Z,51.74
2023-03-22T13:03:23.654Z,53.02
2023-03-22T13:06:03.499Z,53.70
2023-03-22T13:09:12.000Z,54.58
2023-03-22T13:11:44.644Z,54.16
2023-03-22T13:14:54.134Z,53.98
2023-03-22T13:17:27.835Z,53.65
2023-03-22T13:20:14.782Z,52.51
2023-03-22T13:22:52.556Z,52.99
2023-03-22T13:25:37.893Z,53.20
2023-03-22T13:28:32.077Z,53.45
2023-03-22T13:31:02.590Z,52.93
2023-03-22T13:33:36.420Z,52.20
2023-03-22T13:36:25.953Z,51.79
2023-03-22T13:39:03.162Z,51.49
2023-03-22T13:41:35.560Z,50.83
2023-03-22T13:44:30.053Z,50.50
2023-03-22T13:47:06.037Z,51.83
2023-03-22T13:49:46.283Z,51.84
2023-03-22T13:52:27.641Z,51.84
2023-03-22T13:54:59.571Z,52.53
2023-03-22T13:57:48.832Z,51.62
2023-03-22T14:00:25.052Z,51.71
2023-03-22T14:02:57.062Z,51.28
2023-03-22T14:05:32.316Z,51.15
2023-03-22T14:08:04.484Z,51.13
2023-03-22T14:10:53.791Z,50.61
2023-03-22T14:13:31.184Z,50.35
2023-03-22T14:16:21.977Z,49.87
2023-03-22T14:18:52.773Z,49.36
2023-03-22T14:21:27.549Z,49.05
